createdAt,value
2022-07-27T00:01:09.361Z,22.70
2022-07-27T00:03:38.202Z,22.70
2022-07-27T00:06:08.013Z,22.70
2022-07-27T00:08:36.409Z,22.70
2022-07-27T00:11:04.780Z,22.70
2022-07-27T00:13:33.300Z,22.70
2022-07-27T00:16:01.504Z,22.70
2022-07-27T00:18:30.000Z,22.70
2022-07-27T00:20:58.182Z,22.70
2022-07-27T00:23:27.637Z,22.60
2022-07-27T00:25:55.754Z,22.60
2022-07-27T00:28:23.963Z,22.70
2022-07-27T00:30:52.010Z,22.70
2022-07-27T00:33:20.111Z,22.70
2022-07-27T00:35:48.232Z,22.70
2022-07-27T00:38:16.690Z,22.70
2022-07-27T00:40:46.213Z,22.50
2022-07-27T00:43:15.295Z,22.20
2022-07-27T00:45:43.407Z,22.30
2022-07-27T00:48:11.595Z,22.30
2022-07-27T00:50:43.345Z,22.30
2022-07-27T00:53:12.431Z,22.20
2022-07-27T00:55:40.991Z,22.00
2022-07-27T00:58:10.758Z,22.00
2022-07-27T01:00:39.628Z,21.90
2022-07-27T01:03:09.703Z,21.70
2022-07-27T01:05:43.155Z,21.90
2022-07-27T01:08:14.296Z,22.10
2022-07-27T01:10:43.974Z,22.20
2022-07-27T01:13:13.975Z,22.20
2022-07-27T01:15:43.650Z,22.30
2022-07-27T01:18:27.638Z,22.30
2022-07-27T01:20:55.993Z,22.20
2022-07-27T01:23:25.606Z,22.20
2022-07-27T01:25:53.730Z,22.10
2022-07-27T01:28:22.265Z,22.00
2022-07-27T01:30:50.466Z,21.90
2022-07-27T01:33:25.744Z,21.80
2022-07-27T01:35:55.599Z,21.70
2022-07-27T01:38:25.261Z,21.30
2022-07-27T01:40:54.641Z,21.20
2022-07-27T01:43:23.248Z,21.00
2022-07-27T01:45:51.762Z,20.90
2022-07-27T01:48:20.882Z,20.90
2022-07-27T01:50:51.051Z,20.80
2022-07-27T01:53:19.474Z,21.00
2022-07-27T01:55:49.376Z,21.10
2022-07-27T01:58:17.683Z,20.90
2022-07-27T02:00:46.064Z,20.70
2022-07-27T02:03:14.118Z,20.60
2022-07-27T02:05:42.457Z,20.60
2022-07-27T02:08:10.720Z,20.50
2022-07-27T02:10:59.302Z,20.60
2022-07-27T02:13:28.480Z,20.70
2022-07-27T02:15:57.164Z,20.80
2022-07-27T02:18:32.832Z,20.60
2022-07-27T02:21:04.561Z,20.90
2022-07-27T02:23:32.700Z,20.80
2022-07-27T02:26:01.246Z,20.90
2022-07-27T02:28:30.741Z,20.70
2022-07-27T02:30:58.893Z,20.60
2022-07-27T02:33:27.360Z,20.70
2022-07-27T02:35:55.465Z,20.90
2022-07-27T02:38:23.690Z,20.80
2022-07-27T02:40:51.717Z,20.80
2022-07-27T02:43:19.802Z,20.80
2022-07-27T02:45:49.460Z,21.00
2022-07-27T02:48:17.683Z,21.00
2022-07-27T02:50:45.755Z,20.90
2022-07-27T02:53:14.012Z,20.90
2022-07-27T02:55:42.214Z,21.20
2022-07-27T02:58:10.441Z,21.20
2022-07-27T03:00:38.700Z,21.20
2022-07-27T03:03:08.173Z,21.40
2022-07-27T03:05:36.267Z,21.60
2022-07-27T03:08:04.755Z,21.60
2022-07-27T03:10:32.890Z,21.50
2022-07-27T03:13:00.910Z,21.40
2022-07-27T03:15:30.368Z,21.20
2022-07-27T03:17:58.486Z,21.40
2022-07-27T03:20:28.458Z,21.50
2022-07-27T03:22:56.547Z,21.50
2022-07-27T03:25:24.714Z,21.70
2022-07-27T03:27:52.777Z,21.60
2022-07-27T03:30:20.982Z,21.60
2022-07-27T03:32:49.395Z,21.80
2022-07-27T03:35:17.509Z,21.80
2022-07-27T03:37:49.373Z,21.90
2022-07-27T03:40:17.899Z,21.60
2022-07-27T03:42:46.286Z,21.30
2022-07-27T03:45:14.387Z,20.90
2022-07-27T03:47:42.471Z,20.80
2022-07-27T03:50:11.022Z,20.80
2022-07-27T03:52:39.198Z,21.00
2022-07-27T03:55:09.553Z,20.90
2022-07-27T03:57:38.063Z,20.90
2022-07-27T04:00:07.201Z,21.00
2022-07-27T04:02:35.518Z,21.10
2022-07-27T04:05:03.754Z,21.10
2022-07-27T04:07:31.818Z,21.20
2022-07-27T04:09:59.900Z,21.30
2022-07-27T04:12:31.820Z,21.50
2022-07-27T04:14:59.949Z,21.60
2022-07-27T04:17:54.764Z,21.70
2022-07-27T04:20:16.353Z,21.70
2022-07-27T04:22:44.484Z,21.70
2022-07-27T04:25:12.655Z,21.80
2022-07-27T04:27:42.213Z,21.80
2022-07-27T04:30:11.361Z,21.70
2022-07-27T04:32:39.782Z,21.70
2022-07-27T04:35:09.407Z,21.80
2022-07-27T04:37:39.590Z,21.90
2022-07-27T04:40:09.315Z,21.90
2022-07-27T04:42:37.387Z,21.90
2022-07-27T04:45:18.255Z,21.90
2022-07-27T04:47:46.412Z,21.90
2022-07-27T04:50:14.481Z,22.00
2022-07-27T04:52:42.590Z,22.00
2022-07-27T04:55:11.355Z,21.90
2022-07-27T04:57:41.931Z,21.90
2022-07-27T05:00:12.545Z,21.90
2022-07-27T05:02:42.564Z,21.90
2022-07-27T05:05:11.044Z,21.90
2022-07-27T05:07:39.066Z,21.90
2022-07-27T05:10:07.810Z,21.90
2022-07-27T05:12:35.947Z,21.90
2022-07-27T05:15:04.196Z,21.90
2022-07-27T05:17:32.643Z,21.90
2022-07-27T05:20:02.497Z,22.00
2022-07-27T05:22:30.588Z,22.00
2022-07-27T05:24:58.661Z,22.00
2022-07-27T05:27:27.567Z,22.00
2022-07-27T05:29:55.745Z,22.00
2022-07-27T05:32:23.891Z,22.00
2022-07-27T05:34:52.066Z,22.00
2022-07-27T05:37:21.625Z,22.10
2022-07-27T05:39:51.725Z,22.00
2022-07-27T05:42:19.797Z,22.10
2022-07-27T05:44:48.053Z,22.10
2022-07-27T05:47:16.127Z,22.10
2022-07-27T05:49:44.549Z,22.00
2022-07-27T05:52:12.706Z,22.00
2022-07-27T05:54:42.606Z,22.00
2022-07-27T05:57:10.688Z,22.00
2022-07-27T05:59:38.810Z,22.10
2022-07-27T06:02:06.860Z,22.10
2022-07-27T06:04:34.983Z,22.20
2022-07-27T06:07:20.689Z,22.20
2022-07-27T06:09:50.141Z,22.20
2022-07-27T06:12:18.209Z,22.20
2022-07-27T06:14:50.991Z,22.30
2022-07-27T06:17:19.565Z,22.30
2022-07-27T06:19:47.744Z,22.30
2022-07-27T06:22:15.784Z,22.40
2022-07-27T06:24:43.867Z,22.20
2022-07-27T06:27:13.310Z,22.20
2022-07-27T06:29:41.591Z,22.10
2022-07-27T06:32:09.761Z,21.90
2022-07-27T06:34:42.354Z,21.80
2022-07-27T06:37:11.345Z,21.90
2022-07-27T06:39:39.463Z,21.90
2022-07-27T06:42:08.798Z,21.90
2022-07-27T06:44:38.311Z,22.00
2022-07-27T06:47:07.767Z,22.00
2022-07-27T06:49:35.981Z,21.70
2022-07-27T06:52:04.110Z,21.50
2022-07-27T06:54:32.378Z,21.30
2022-07-27T06:57:00.927Z,21.40
2022-07-27T06:59:43.606Z,21.40
2022-07-27T07:02:13.372Z,21.40
2022-07-27T07:04:41.421Z,21.50
2022-07-27T07:07:09.576Z,21.60
2022-07-27T07:09:37.630Z,21.40
2022-07-27T07:12:07.465Z,21.60
2022-07-27T07:14:35.792Z,21.80
2022-07-27T07:17:03.863Z,21.80
2022-07-27T07:19:33.898Z,21.70
2022-07-27T07:22:02.010Z,21.80
2022-07-27T07:24:30.797Z,21.90
2022-07-27T07:26:58.867Z,21.90
2022-07-27T07:29:26.954Z,21.80
2022-07-27T07:31:55.156Z,21.90
2022-07-27T07:34:23.436Z,22.00
2022-07-27T07:36:52.904Z,22.10
2022-07-27T07:39:21.034Z,22.30
2022-07-27T07:41:49.403Z,22.40
2022-07-27T07:44:17.675Z,22.40
2022-07-27T07:46:47.450Z,22.30
2022-07-27T07:49:16.320Z,22.40
2022-07-27T07:51:44.920Z,22.40
2022-07-27T07:54:14.590Z,22.50
2022-07-27T07:56:42.731Z,22.50
2022-07-27T07:59:11.224Z,22.50
2022-07-27T08:01:39.612Z,22.40
2022-07-27T08:04:07.776Z,22.40
2022-07-27T08:06:36.444Z,22.50
2022-07-27T08:09:04.736Z,22.60
2022-07-27T08:11:34.250Z,22.60
2022-07-27T08:14:03.391Z,22.40
2022-07-27T08:16:32.027Z,22.30
2022-07-27T08:19:00.261Z,22.30
2022-07-27T08:21:29.133Z,22.40
2022-07-27T08:24:03.330Z,22.40
2022-07-27T08:26:31.473Z,22.40
2022-07-27T08:29:00.992Z,22.40
2022-07-27T08:31:51.314Z,22.50
2022-07-27T08:34:19.924Z,22.50
2022-07-27T08:36:48.044Z,22.50
2022-07-27T08:39:52.563Z,22.60
2022-07-27T08:42:05.693Z,22.80
2022-07-27T08:44:35.960Z,22.80
2022-07-27T08:47:04.975Z,22.70
2022-07-27T08:49:43.149Z,22.80
2022-07-27T08:52:12.943Z,22.80
2022-07-27T08:54:41.658Z,22.90
2022-07-27T08:57:11.203Z,22.80
2022-07-27T08:59:43.061Z,22.90
2022-07-27T09:02:15.080Z,22.90
2022-07-27T09:04:43.368Z,23.00
2022-07-27T09:07:11.464Z,23.10
2022-07-27T09:09:48.200Z,23.20
2022-07-27T09:12:16.321Z,23.20
2022-07-27T09:14:49.784Z,23.30
2022-07-27T09:20:18.667Z,23.40
2022-07-27T09:22:50.808Z,23.40
2022-07-27T09:25:44.969Z,23.50
2022-07-27T09:28:10.646Z,23.60
2022-07-27T09:30:44.389Z,23.70
2022-07-27T09:33:16.571Z,23.60
2022-07-27T09:35:46.384Z,23.70
2022-07-27T09:38:21.842Z,23.80
2022-07-27T09:40:59.108Z,23.70
2022-07-27T09:46:30.345Z,23.90
2022-07-27T09:48:58.741Z,24.00
2022-07-27T09:51:58.817Z,24.10
2022-07-27T09:54:15.406Z,24.20
2022-07-27T09:56:44.191Z,24.20
2022-07-27T09:59:19.509Z,24.20
2022-07-27T10:01:54.584Z,24.20
2022-07-27T10:04:23.727Z,24.40
2022-07-27T10:07:12.645Z,24.40
2022-07-27T10:09:41.292Z,24.50
2022-07-27T10:12:10.285Z,24.60
2022-07-27T10:14:38.479Z,24.70
2022-07-27T10:17:12.868Z,24.70
2022-07-27T10:19:46.973Z,24.80
2022-07-27T10:22:15.161Z,24.90
2022-07-27T10:24:43.298Z,25.00
2022-07-27T10:27:22.303Z,25.00
2022-07-27T10:29:51.658Z,25.00
2022-07-27T10:32:31.160Z,25.00
2022-07-27T10:35:00.040Z,25.10
2022-07-27T10:37:29.916Z,25.20
2022-07-27T10:40:13.388Z,25.30
2022-07-27T10:42:42.090Z,25.40
2022-07-27T10:45:12.366Z,25.50
2022-07-27T10:47:47.122Z,25.60
2022-07-27T10:50:32.383Z,25.50
2022-07-27T10:53:08.319Z,25.70
2022-07-27T10:55:52.269Z,25.70
2022-07-27T10:58:47.661Z,25.70
2022-07-27T11:01:17.443Z,25.70
2022-07-27T11:03:53.743Z,25.80
2022-07-27T11:06:55.461Z,25.80
2022-07-27T11:12:05.439Z,26.00
2022-07-27T11:14:45.323Z,26.10
2022-07-27T11:20:04.089Z,26.20
2022-07-27T11:23:03.095Z,26.30
2022-07-27T11:25:23.579Z,26.30
2022-07-27T11:27:52.482Z,26.30
2022-07-27T11:30:25.140Z,26.40
2022-07-27T11:32:53.736Z,26.40
2022-07-27T11:35:24.157Z,26.60
2022-07-27T11:38:03.141Z,26.60
2022-07-27T11:43:37.689Z,26.90
2022-07-27T11:46:18.594Z,26.90
2022-07-27T11:49:08.398Z,27.00
2022-07-27T11:51:40.851Z,27.10
2022-07-27T11:54:10.835Z,27.10
2022-07-27T11:56:40.549Z,27.20
2022-07-27T11:59:12.208Z,27.20
2022-07-27T12:01:42.554Z,27.30
2022-07-27T12:04:18.715Z,27.30
2022-07-27T12:06:57.694Z,27.30
2022-07-27T12:09:26.506Z,27.40
2022-07-27T12:12:01.664Z,27.50
2022-07-27T12:14:35.599Z,27.50
2022-07-27T12:17:29.145Z,27.50
2022-07-27T12:20:03.034Z,27.60
2022-07-27T12:22:36.264Z,27.70
2022-07-27T12:25:12.667Z,27.80
2022-07-27T12:27:56.532Z,27.90
2022-07-27T12:30:31.507Z,28.00
2022-07-27T12:33:00.367Z,28.00
2022-07-27T12:35:35.904Z,28.00
2022-07-27T12:38:08.152Z,28.00
2022-07-27T12:40:44.215Z,28.00
2022-07-27T12:43:17.925Z,28.00
2022-07-27T12:45:46.815Z,28.10
2022-07-27T12:48:16.637Z,28.20
2022-07-27T12:50:46.682Z,28.30
2022-07-27T12:53:18.016Z,28.40
2022-07-27T12:55:46.438Z,28.40
2022-07-27T12:58:15.175Z,28.40
2022-07-27T13:00:43.855Z,28.50
2022-07-27T13:03:11.990Z,28.40
2022-07-27T13:05:40.082Z,28.40
2022-07-27T13:08:09.427Z,28.40
2022-07-27T13:10:39.631Z,28.30
2022-07-27T13:13:09.356Z,28.20
2022-07-27T13:15:37.954Z,28.20
2022-07-27T13:18:06.315Z,28.20
2022-07-27T13:20:37.014Z,28.10
2022-07-27T13:23:08.430Z,28.00
2022-07-27T13:25:43.068Z,28.00
2022-07-27T13:28:11.862Z,28.00
2022-07-27T13:30:40.467Z,27.90
2022-07-27T13:33:08.652Z,27.90
2022-07-27T13:35:37.076Z,27.90
2022-07-27T13:38:05.277Z,27.90
2022-07-27T13:40:33.326Z,27.80
2022-07-27T13:43:02.877Z,27.70
2022-07-27T13:45:43.455Z,27.70
2022-07-27T13:48:13.195Z,27.60
2022-07-27T13:50:42.054Z,27.50
2022-07-27T13:53:15.227Z,27.50
2022-07-27T13:55:44.164Z,27.50
2022-07-27T13:58:13.734Z,27.40
2022-07-27T14:00:42.229Z,27.40
2022-07-27T14:03:11.532Z,27.40
2022-07-27T14:05:49.219Z,27.30
2022-07-27T14:08:18.800Z,27.30
2022-07-27T14:10:47.069Z,27.20
2022-07-27T14:13:17.617Z,27.10
2022-07-27T14:15:54.231Z,27.00
2022-07-27T14:18:28.651Z,27.00
2022-07-27T14:20:58.227Z,26.90
2022-07-27T14:23:26.819Z,26.80
2022-07-27T14:25:58.145Z,26.80
2022-07-27T14:28:29.559Z,26.40
2022-07-27T14:30:58.366Z,26.00
2022-07-27T14:33:35.156Z,25.80
2022-07-27T14:36:06.304Z,25.70
2022-07-27T14:38:34.548Z,26.20
2022-07-27T14:41:02.718Z,27.30
2022-07-27T14:43:32.732Z,28.50
2022-07-27T14:46:02.002Z,29.10
2022-07-27T14:49:03.178Z,28.90
2022-07-27T14:51:18.161Z,28.30
2022-07-27T14:53:46.325Z,27.70
2022-07-27T14:56:14.785Z,27.30
2022-07-27T14:58:44.708Z,26.60
2022-07-27T15:01:16.693Z,26.10
2022-07-27T15:03:45.750Z,25.80
2022-07-27T15:06:13.931Z,25.50
2022-07-27T15:08:42.122Z,25.40
2022-07-27T15:11:11.007Z,25.30
2022-07-27T15:13:39.197Z,25.70
2022-07-27T15:16:09.050Z,26.50
2022-07-27T15:18:38.763Z,27.60
2022-07-27T15:21:13.423Z,28.50
2022-07-27T15:23:43.085Z,28.90
2022-07-27T15:26:12.039Z,28.50
2022-07-27T15:28:40.326Z,28.10
2022-07-27T15:31:09.805Z,27.60
2022-07-27T15:33:37.953Z,27.10
2022-07-27T15:36:06.846Z,26.60
2022-07-27T15:38:35.002Z,26.30
2022-07-27T15:41:03.338Z,26.00
2022-07-27T15:43:31.540Z,25.80
2022-07-27T15:45:59.743Z,25.50
2022-07-27T15:48:29.751Z,25.40
2022-07-27T15:50:58.953Z,25.30
2022-07-27T15:53:28.591Z,25.20
2022-07-27T15:55:57.045Z,25.10
2022-07-27T15:58:25.609Z,25.00
2022-07-27T16:00:56.007Z,25.00
2022-07-27T16:03:27.308Z,24.90
2022-07-27T16:05:57.816Z,24.80
2022-07-27T16:08:27.237Z,25.00
2022-07-27T16:10:55.420Z,25.10
2022-07-27T16:13:23.536Z,25.40
2022-07-27T16:16:09.602Z,25.70
2022-07-27T16:18:39.069Z,25.70
2022-07-27T16:21:09.138Z,25.70
2022-07-27T16:23:37.387Z,25.60
2022-07-27T16:26:06.470Z,25.60
2022-07-27T16:28:36.764Z,25.60
2022-07-27T16:31:06.219Z,25.50
2022-07-27T16:33:34.404Z,25.50
2022-07-27T16:36:02.504Z,25.50
2022-07-27T16:38:32.022Z,25.50
2022-07-27T16:41:00.272Z,25.60
2022-07-27T16:43:37.195Z,25.50
2022-07-27T16:46:08.808Z,25.60
2022-07-27T16:48:42.434Z,25.60
2022-07-27T16:51:12.657Z,25.70
2022-07-27T16:53:44.389Z,25.70
2022-07-27T16:56:13.213Z,25.70
2022-07-27T16:58:41.707Z,25.70
2022-07-27T17:01:21.837Z,25.60
2022-07-27T17:03:54.431Z,25.60
2022-07-27T17:06:22.704Z,25.60
2022-07-27T17:08:52.218Z,25.60
2022-07-27T17:11:22.027Z,25.50
2022-07-27T17:13:50.883Z,25.50
2022-07-27T17:16:27.156Z,25.50
2022-07-27T17:18:55.461Z,25.50
2022-07-27T17:21:23.630Z,25.50
2022-07-27T17:23:53.103Z,25.50
2022-07-27T17:26:24.402Z,25.50
2022-07-27T17:28:53.675Z,25.50
2022-07-27T17:31:22.305Z,25.50
2022-07-27T17:33:50.804Z,25.50
2022-07-27T17:36:18.903Z,25.40
2022-07-27T17:38:48.410Z,25.40
2022-07-27T17:41:24.133Z,25.30
2022-07-27T17:43:53.382Z,25.30
2022-07-27T17:46:22.091Z,25.30
2022-07-27T17:48:50.370Z,25.30
2022-07-27T17:51:18.720Z,25.30
2022-07-27T17:53:47.712Z,25.20
2022-07-27T17:56:17.254Z,25.20
2022-07-27T17:58:46.323Z,25.20
2022-07-27T18:01:14.565Z,25.20
2022-07-27T18:03:42.802Z,25.20
2022-07-27T18:06:10.986Z,25.10
2022-07-27T18:08:39.076Z,25.10
2022-07-27T18:11:07.235Z,25.00
2022-07-27T18:13:38.969Z,25.00
2022-07-27T18:16:09.394Z,25.00
2022-07-27T18:18:37.971Z,24.90
2022-07-27T18:21:06.805Z,25.00
2022-07-27T18:23:35.257Z,24.80
2022-07-27T18:26:03.379Z,24.80
2022-07-27T18:28:37.293Z,24.90
2022-07-27T18:31:09.930Z,24.90
2022-07-27T18:33:40.535Z,25.00
2022-07-27T18:36:09.062Z,24.90
2022-07-27T18:38:38.136Z,24.90
2022-07-27T18:41:06.705Z,24.80
2022-07-27T18:43:34.793Z,24.80
2022-07-27T18:46:03.175Z,24.80
2022-07-27T18:48:32.703Z,24.80
2022-07-27T18:51:00.874Z,24.80
2022-07-27T18:53:28.916Z,24.80
2022-07-27T18:55:57.215Z,24.80
2022-07-27T18:58:27.625Z,24.80
2022-07-27T19:00:55.774Z,24.70
2022-07-27T19:03:24.774Z,24.60
2022-07-27T19:05:57.583Z,24.60
2022-07-27T19:08:25.691Z,24.60
2022-07-27T19:10:53.930Z,24.50
2022-07-27T19:13:22.204Z,24.40
2022-07-27T19:15:50.394Z,24.40
2022-07-27T19:18:18.737Z,24.30
2022-07-27T19:20:46.971Z,24.30
2022-07-27T19:23:16.400Z,24.20
2022-07-27T19:25:45.306Z,24.20
2022-07-27T19:28:17.059Z,24.20
2022-07-27T19:30:46.718Z,24.30
2022-07-27T19:33:14.910Z,24.30
2022-07-27T19:35:43.121Z,24.30
2022-07-27T19:38:12.008Z,24.30
2022-07-27T19:40:44.689Z,24.40
2022-07-27T19:43:13.658Z,24.30
2022-07-27T19:45:42.586Z,24.30
2022-07-27T19:48:10.979Z,24.30
2022-07-27T19:50:40.033Z,24.20
2022-07-27T19:53:08.329Z,24.30
2022-07-27T19:55:36.474Z,24.30
2022-07-27T19:58:06.363Z,24.30
2022-07-27T20:00:34.527Z,24.30
2022-07-27T20:03:03.310Z,24.20
2022-07-27T20:05:31.927Z,24.30
2022-07-27T20:08:00.180Z,24.30
2022-07-27T20:10:28.390Z,24.40
2022-07-27T20:12:56.456Z,24.30
2022-07-27T20:15:26.099Z,24.30
2022-07-27T20:17:54.237Z,24.30
2022-07-27T20:20:22.397Z,24.20
2022-07-27T20:22:50.684Z,24.20
2022-07-27T20:25:18.847Z,24.20
2022-07-27T20:27:47.817Z,24.20
2022-07-27T20:30:17.967Z,24.20
2022-07-27T20:32:47.956Z,24.20
2022-07-27T20:35:17.108Z,24.20
2022-07-27T20:37:45.790Z,24.10
2022-07-27T20:40:14.390Z,24.10
2022-07-27T20:42:43.728Z,23.90
2022-07-27T20:45:14.697Z,23.90
2022-07-27T20:47:43.643Z,24.00
2022-07-27T20:50:15.835Z,24.00
2022-07-27T20:52:44.157Z,24.10
2022-07-27T20:55:12.730Z,23.90
2022-07-27T20:57:40.817Z,23.90
2022-07-27T21:00:10.231Z,23.90
2022-07-27T21:02:38.412Z,24.00
2022-07-27T21:05:08.126Z,24.00
2022-07-27T21:07:37.626Z,24.00
2022-07-27T21:10:06.811Z,23.90
2022-07-27T21:12:35.062Z,23.90
2022-07-27T21:15:03.235Z,23.80
2022-07-27T21:17:31.343Z,23.80
2022-07-27T21:19:59.550Z,23.70
2022-07-27T21:22:28.820Z,23.70
2022-07-27T21:24:58.256Z,23.60
2022-07-27T21:27:26.501Z,23.70
2022-07-27T21:29:55.024Z,23.70
2022-07-27T21:32:23.109Z,23.80
2022-07-27T21:34:51.411Z,23.80
2022-07-27T21:37:19.468Z,23.80
2022-07-27T21:39:47.708Z,23.80
2022-07-27T21:42:17.109Z,23.80
2022-07-27T21:44:45.457Z,23.70
2022-07-27T21:47:14.639Z,23.70
2022-07-27T21:49:43.399Z,23.70
2022-07-27T21:52:12.213Z,23.60
2022-07-27T21:54:40.809Z,23.60
2022-07-27T21:57:08.897Z,23.60
2022-07-27T21:59:38.344Z,23.50
2022-07-27T22:02:06.493Z,23.40
2022-07-27T22:04:35.486Z,23.30
2022-07-27T22:07:04.968Z,23.30
2022-07-27T22:09:33.049Z,23.30
2022-07-27T22:12:01.130Z,23.30
2022-07-27T22:14:29.325Z,23.30
2022-07-27T22:16:59.991Z,23.30
2022-07-27T22:19:28.277Z,23.30
2022-07-27T22:21:56.350Z,23.30
2022-07-27T22:24:24.496Z,23.20
2022-07-27T22:26:52.618Z,23.30
2022-07-27T22:29:20.675Z,23.30
2022-07-27T22:31:48.900Z,23.30
2022-07-27T22:34:18.410Z,23.40
2022-07-27T22:36:46.475Z,23.40
2022-07-27T22:39:14.581Z,23.40
2022-07-27T22:41:42.678Z,23.40
2022-07-27T22:44:10.946Z,23.40
2022-07-27T22:46:39.407Z,23.40
2022-07-27T22:49:09.458Z,23.40
2022-07-27T22:51:50.319Z,23.30
2022-07-27T22:54:21.368Z,23.30
2022-07-27T22:56:49.817Z,23.20
2022-07-27T22:59:17.884Z,23.30
2022-07-27T23:01:48.175Z,23.20
2022-07-27T23:04:17.927Z,23.20
2022-07-27T23:06:48.418Z,23.20
2022-07-27T23:09:16.844Z,23.20
2022-07-27T23:11:45.266Z,23.20
2022-07-27T23:14:14.127Z,23.20
2022-07-27T23:16:43.618Z,23.10
2022-07-27T23:19:12.267Z,23.00
2022-07-27T23:21:41.779Z,23.00
2022-07-27T23:24:13.600Z,22.90
2022-07-27T23:26:42.609Z,22.90
2022-07-27T23:29:10.836Z,22.90
2022-07-27T23:31:39.062Z,22.80
2022-07-27T23:34:07.426Z,22.80
2022-07-27T23:36:35.518Z,22.70
2022-07-27T23:39:03.579Z,22.60
2022-07-27T23:41:33.013Z,22.60
2022-07-27T23:44:01.090Z,22.60
2022-07-27T23:46:29.268Z,22.60
2022-07-27T23:48:57.462Z,22.50
2022-07-27T23:51:25.581Z,22.50
2022-07-27T23:53:53.642Z,22.50
2022-07-27T23:56:21.864Z,22.50
2022-07-27T23:58:51.271Z,22.50
